sensor_id;sensor_type;location;lat;lon;timestamp;pressure;altitude;pressure_sealevel;temperature;humidity
49216;BME280;45943;53.148;8.204;2024-03-23T00:53:58;100928.06;;;11.74;100.00
49216;BME280;45943;53.148;8.204;2024-03-23T00:56:24;100921.69;;;11.75;100.00
49216;BME280;45943;53.148;8.204;2024-03-23T00:58:50;100911.94;;;11.74;100.00
49216;BME280;45943;53.148;8.204;2024-03-23T01:01:16;100912.31;;;11.69;100.00
49216;BME280;45943;53.148;8.204;2024-03-23T01:03:42;100907.31;;;11.65;100.00
49216;BME280;45943;53.148;8.204;2024-03-23T01:06:08;100906.47;;;11.64;100.00
49216;BME280;45943;53.148;8.204;2024-03-23T01:08:34;100902.09;;;11.63;100.00
49216;BME280;45943;53.148;8.204;2024-03-23T01:11:00;100903.06;;;11.62;100.00
49216;BME280;45943;53.148;8.204;2024-03-23T01:13:28;100902.22;;;11.62;100.00
49216;BME280;45943;53.148;8.204;2024-03-23T01:15:54;100899.66;;;11.60;100.00
49216;BME280;45943;53.148;8.204;2024-03-23T01:18:21;100899.66;;;11.60;100.00
49216;BME280;45943;53.148;8.204;2024-03-23T01:20:48;100888.56;;;11.54;100.00
49216;BME280;45943;53.148;8.204;2024-03-23T01:23:15;100885.03;;;11.53;100.00
49216;BME280;45943;53.148;8.204;2024-03-23T01:25:41;100876.72;;;11.56;100.00
49216;BME280;45943;53.148;8.204;2024-03-23T01:28:07;100882.09;;;11.56;100.00
49216;BME280;45943;53.148;8.204;2024-03-23T01:30:33;100890.00;;;11.58;100.00
49216;BME280;45943;53.148;8.204;2024-03-23T01:33:00;100885.34;;;11.60;100.00
49216;BME280;45943;53.148;8.204;2024-03-23T01:35:26;100882.66;;;11.60;100.00
49216;BME280;45943;53.148;8.204;2024-03-23T01:37:53;100871.47;;;11.55;100.00
49216;BME280;45943;53.148;8.204;2024-03-23T01:40:19;100864.25;;;11.55;100.00
49216;BME280;45943;53.148;8.204;2024-03-23T01:43:04;100862.44;;;11.56;100.00
49216;BME280;45943;53.148;8.204;2024-03-23T01:45:31;100862.56;;;11.54;100.00
49216;BME280;45943;53.148;8.204;2024-03-23T01:47:58;100860.84;;;11.53;100.00
49216;BME280;45943;53.148;8.204;2024-03-23T01:50:24;100868.19;;;11.51;100.00
49216;BME280;45943;53.148;8.204;2024-03-23T01:52:51;100866.59;;;11.48;100.00
49216;BME280;45943;53.148;8.204;2024-03-23T01:55:17;100858.69;;;11.47;100.00
49216;BME280;45943;53.148;8.204;2024-03-23T01:57:43;100850.75;;;11.45;100.00
49216;BME280;45943;53.148;8.204;2024-03-23T02:00:09;100851.59;;;11.46;100.00
49216;BME280;45943;53.148;8.204;2024-03-23T02:02:42;100851.47;;;11.47;100.00
49216;BME280;45943;53.148;8.204;2024-03-23T02:05:11;100846.22;;;11.46;100.00
49216;BME280;45943;53.148;8.204;2024-03-23T02:07:38;100834.63;;;11.45;100.00
49216;BME280;45943;53.148;8.204;2024-03-23T02:10:08;100832.78;;;11.46;100.00
49216;BME280;45943;53.148;8.204;2024-03-23T02:12:36;100831.53;;;11.50;100.00
49216;BME280;45943;53.148;8.204;2024-03-23T02:15:02;100841.19;;;11.53;100.00
49216;BME280;45943;53.148;8.204;2024-03-23T02:17:29;100840.72;;;11.47;100.00
49216;BME280;45943;53.148;8.204;2024-03-23T02:19:56;100839.88;;;11.47;100.00
49216;BME280;45943;53.148;8.204;2024-03-23T02:22:22;100831.22;;;11.43;100.00
49216;BME280;45943;53.148;8.204;2024-03-23T02:24:48;100835.47;;;11.46;100.00
49216;BME280;45943;53.148;8.204;2024-03-23T02:27:14;100827.56;;;11.44;100.00
49216;BME280;45943;53.148;8.204;2024-03-23T02:29:40;100822.06;;;11.46;100.00
49216;BME280;45943;53.148;8.204;2024-03-23T02:32:06;100805.22;;;11.44;100.00
49216;BME280;45943;53.148;8.204;2024-03-23T02:34:34;100802.81;;;11.41;100.00
49216;BME280;45943;53.148;8.204;2024-03-23T02:37:01;100809.53;;;11.35;100.00
49216;BME280;45943;53.148;8.204;2024-03-23T02:39:27;100802.47;;;11.34;100.00
49216;BME280;45943;53.148;8.204;2024-03-23T02:41:53;100798.31;;;11.30;100.00
49216;BME280;45943;53.148;8.204;2024-03-23T02:44:19;100788.69;;;11.28;100.00
49216;BME280;45943;53.148;8.204;2024-03-23T02:46:45;100787.84;;;11.27;100.00
49216;BME280;45943;53.148;8.204;2024-03-23T02:49:11;100788.56;;;11.29;100.00
49216;BME280;45943;53.148;8.204;2024-03-23T02:51:37;100786.47;;;11.33;100.00
49216;BME280;45943;53.148;8.204;2024-03-23T02:54:03;100783.53;;;11.36;100.00
49216;BME280;45943;53.148;8.204;2024-03-23T02:56:31;100777.03;;;11.38;100.00
49216;BME280;45943;53.148;8.204;2024-03-23T02:58:58;100773.50;;;11.38;100.00
49216;BME280;45943;53.148;8.204;2024-03-23T03:01:24;100772.50;;;11.39;100.00
49216;BME280;45943;53.148;8.204;2024-03-23T03:03:50;100766.06;;;11.41;100.00
49216;BME280;45943;53.148;8.204;2024-03-23T03:06:25;100758.38;;;11.37;100.00
49216;BME280;45943;53.148;8.204;2024-03-23T03:08:52;100768.19;;;11.27;100.00
49216;BME280;45943;53.148;8.204;2024-03-23T03:11:18;100764.59;;;11.16;100.00
49216;BME280;45943;53.148;8.204;2024-03-23T03:13:44;100762.63;;;11.18;100.00
49216;BME280;45943;53.148;8.204;2024-03-23T03:16:10;100761.91;;;11.16;100.00
49216;BME280;45943;53.148;8.204;2024-03-23T03:18:37;100762.16;;;11.13;100.00
49216;BME280;45943;53.148;8.204;2024-03-23T03:21:03;100758.75;;;11.11;100.00
49216;BME280;45943;53.148;8.204;2024-03-23T03:23:31;100756.78;;;11.13;100.00
49216;BME280;45943;53.148;8.204;2024-03-23T03:25:57;100747.91;;;11.13;100.00
49216;BME280;45943;53.148;8.204;2024-03-23T03:28:23;100751.44;;;11.13;100.00
49216;BME280;45943;53.148;8.204;2024-03-23T03:30:49;100745.97;;;11.04;100.00
49216;BME280;45943;53.148;8.204;2024-03-23T03:33:15;100759.78;;;10.99;100.00
49216;BME280;45943;53.148;8.204;2024-03-23T03:35:42;100747.09;;;11.01;100.00
49216;BME280;45943;53.148;8.204;2024-03-23T03:38:09;100740.00;;;11.00;100.00
49216;BME280;45943;53.148;8.204;2024-03-23T03:40:35;100727.44;;;11.01;100.00
49216;BME280;45943;53.148;8.204;2024-03-23T03:43:01;100731.94;;;11.00;100.00
49216;BME280;45943;53.148;8.204;2024-03-23T03:45:27;100724.03;;;10.99;100.00
49216;BME280;45943;53.148;8.204;2024-03-23T03:47:53;100721.47;;;10.97;100.00
49216;BME280;45943;53.148;8.204;2024-03-23T03:50:19;100720.75;;;10.95;100.00
49216;BME280;45943;53.148;8.204;2024-03-23T03:52:47;100723.44;;;10.95;100.00
49216;BME280;45943;53.148;8.204;2024-03-23T03:55:13;100722.88;;;10.91;100.00
49216;BME280;45943;53.148;8.204;2024-03-23T03:57:40;100718.00;;;10.85;100.00
49216;BME280;45943;53.148;8.204;2024-03-23T04:00:06;100728.72;;;10.85;100.00
49216;BME280;45943;53.148;8.204;2024-03-23T04:02:37;100732.91;;;10.78;100.00
49216;BME280;45943;53.148;8.204;2024-03-23T04:05:03;100734.72;;;10.78;100.00
49216;BME280;45943;53.148;8.204;2024-03-23T04:07:30;100722.78;;;10.82;100.00
49216;BME280;45943;53.148;8.204;2024-03-23T04:09:56;100715.44;;;10.84;100.00
49216;BME280;45943;53.148;8.204;2024-03-23T04:12:23;100718.38;;;10.81;100.00
49216;BME280;45943;53.148;8.204;2024-03-23T04:14:49;100712.53;;;10.76;100.00
49216;BME280;45943;53.148;8.204;2024-03-23T04:17:15;100716.22;;;10.75;100.00
49216;BME280;45943;53.148;8.204;2024-03-23T04:19:42;100716.78;;;10.78;100.00
49216;BME280;45943;53.148;8.204;2024-03-23T04:22:07;100718.38;;;10.81;100.00
49216;BME280;45943;53.148;8.204;2024-03-23T04:24:34;100720.34;;;10.79;100.00
49216;BME280;45943;53.148;8.204;2024-03-23T04:27:00;100715.72;;;10.70;100.00
49216;BME280;45943;53.148;8.204;2024-03-23T04:29:26;100725.59;;;10.69;100.00
49216;BME280;45943;53.148;8.204;2024-03-23T04:31:52;100715.63;;;10.60;100.00
49216;BME280;45943;53.148;8.204;2024-03-23T04:34:18;100715.41;;;10.52;100.00
49216;BME280;45943;53.148;8.204;2024-03-23T04:36:44;100712.16;;;10.48;100.00
49216;BME280;45943;53.148;8.204;2024-03-23T04:39:10;100708.75;;;10.46;100.00
49216;BME280;45943;53.148;8.204;2024-03-23T04:41:36;100703.75;;;10.42;100.00
49216;BME280;45943;53.148;8.204;2024-03-23T04:44:02;100708.75;;;10.46;100.00
49216;BME280;45943;53.148;8.204;2024-03-23T04:46:28;100708.88;;;10.45;100.00
49216;BME280;45943;53.148;8.204;2024-03-23T04:48:54;100703.72;;;10.53;100.00
49216;BME280;45943;53.148;8.204;2024-03-23T04:51:24;100699.25;;;10.42;100.00
49216;BME280;45943;53.148;8.204;2024-03-23T04:53:51;100696.94;;;10.38;100.00
49216;BME280;45943;53.148;8.204;2024-03-23T04:56:17;100690.00;;;10.35;100.00
49216;BME280;45943;53.148;8.204;2024-03-23T04:58:44;100689.59;;;10.40;100.00
49216;BME280;45943;53.148;8.204;2024-03-23T05:01:10;100683.28;;;10.41;100.00
49216;BME280;45943;53.148;8.204;2024-03-23T05:03:37;100690.47;;;10.40;100.00
49216;BME280;45943;53.148;8.204;2024-03-23T05:06:03;100685.09;;;10.40;100.00
49216;BME280;45943;53.148;8.204;2024-03-23T05:08:30;100684.38;;;10.38;100.00
49216;BME280;45943;53.148;8.204;2024-03-23T05:10:56;100685.22;;;10.39;100.00
49216;BME280;45943;53.148;8.204;2024-03-23T05:13:22;100681.81;;;10.37;100.00
49216;BME280;45943;53.148;8.204;2024-03-23T05:15:55;100676.97;;;10.30;100.00
49216;BME280;45943;53.148;8.204;2024-03-23T05:18:21;100680.38;;;10.32;100.00
49216;BME280;45943;53.148;8.204;2024-03-23T05:20:47;100675.25;;;10.29;100.00
49216;BME280;45943;53.148;8.204;2024-03-23T05:23:14;100677.63;;;10.23;100.00
49216;BME280;45943;53.148;8.204;2024-03-23T05:25:40;100679.19;;;10.25;100.00
49216;BME280;45943;53.148;8.204;2024-03-23T05:28:06;100676.25;;;10.28;100.00
49216;BME280;45943;53.148;8.204;2024-03-23T05:30:32;100672.72;;;10.28;100.00
49216;BME280;45943;53.148;8.204;2024-03-23T05:32:58;100672.97;;;10.25;100.00
49216;BME280;45943;53.148;8.204;2024-03-23T05:35:24;100673.81;;;10.25;100.00
49216;BME280;45943;53.148;8.204;2024-03-23T05:37:50;100672.00;;;10.26;100.00
49216;BME280;45943;53.148;8.204;2024-03-23T05:40:16;100672.25;;;10.23;100.00
49216;BME280;45943;53.148;8.204;2024-03-23T05:42:42;100672.44;;;10.20;100.00
49216;BME280;45943;53.148;8.204;2024-03-23T05:45:08;100671.59;;;10.19;100.00
49216;BME280;45943;53.148;8.204;2024-03-23T05:47:34;100668.81;;;10.10;100.00
49216;BME280;45943;53.148;8.204;2024-03-23T05:50:00;100657.97;;;10.11;100.00
49216;BME280;45943;53.148;8.204;2024-03-23T05:52:27;100659.78;;;10.11;100.00
49216;BME280;45943;53.148;8.204;2024-03-23T05:54:53;100666.97;;;10.10;100.00
49216;BME280;45943;53.148;8.204;2024-03-23T05:57:19;100665.88;;;10.13;100.00
49216;BME280;45943;53.148;8.204;2024-03-23T05:59:45;100665.38;;;10.19;100.00
49216;BME280;45943;53.148;8.204;2024-03-23T06:02:11;100665.50;;;10.17;100.00
49216;BME280;45943;53.148;8.204;2024-03-23T06:04:38;100666.63;;;10.15;100.00
49216;BME280;45943;53.148;8.204;2024-03-23T06:07:04;100669.66;;;10.10;100.00
49216;BME280;45943;53.148;8.204;2024-03-23T06:09:32;100668.56;;;10.01;100.00
49216;BME280;45943;53.148;8.204;2024-03-23T06:11:58;100669.44;;;10.02;100.00
49216;BME280;45943;53.148;8.204;2024-03-23T06:14:24;100676.38;;;10.04;100.00
49216;BME280;45943;53.148;8.204;2024-03-23T06:16:50;100669.19;;;10.05;100.00
49216;BME280;45943;53.148;8.204;2024-03-23T06:19:16;100663.34;;;10.00;100.00
49216;BME280;45943;53.148;8.204;2024-03-23T06:21:44;100661.16;;;10.05;100.00
49216;BME280;45943;53.148;8.204;2024-03-23T06:24:11;100663.97;;;10.03;100.00
49216;BME280;45943;53.148;8.204;2024-03-23T06:26:37;100663.00;;;10.04;100.00
49216;BME280;45943;53.148;8.204;2024-03-23T06:29:03;100668.78;;;10.21;100.00
49216;BME280;45943;53.148;8.204;2024-03-23T06:31:31;100664.66;;;10.28;100.00
49216;BME280;45943;53.148;8.204;2024-03-23T06:33:57;100667.56;;;10.36;100.00
49216;BME280;45943;53.148;8.204;2024-03-23T06:36:23;100664.63;;;10.39;100.00
49216;BME280;45943;53.148;8.204;2024-03-23T06:38:49;100667.78;;;10.44;100.00
49216;BME280;45943;53.148;8.204;2024-03-23T06:41:15;100657.53;;;10.49;100.00
49216;BME280;45943;53.148;8.204;2024-03-23T06:43:41;100654.59;;;10.52;100.00
49216;BME280;45943;53.148;8.204;2024-03-23T06:46:07;100657.47;;;10.60;100.00
49216;BME280;45943;53.148;8.204;2024-03-23T06:48:33;100653.72;;;10.63;100.00
49216;BME280;45943;53.148;8.204;2024-03-23T06:50:59;100658.22;;;10.62;100.00
49216;BME280;45943;53.148;8.204;2024-03-23T06:53:25;100653.72;;;10.63;100.00
49216;BME280;45943;53.148;8.204;2024-03-23T06:55:52;100664.19;;;10.66;100.00
49216;BME280;45943;53.148;8.204;2024-03-23T06:58:19;100654.88;;;10.70;100.00
49216;BME280;45943;53.148;8.204;2024-03-23T07:00:46;100651.59;;;10.67;100.00
49216;BME280;45943;53.148;8.204;2024-03-23T07:03:12;100651.19;;;10.82;100.00
49216;BME280;45943;53.148;8.204;2024-03-23T07:05:38;100648.09;;;10.87;100.00
49216;BME280;45943;53.148;8.204;2024-03-23T07:08:04;100644.09;;;10.81;100.00
49216;BME280;45943;53.148;8.204;2024-03-23T07:10:30;100643.44;;;10.89;100.00
49216;BME280;45943;53.148;8.204;2024-03-23T07:12:56;100646.97;;;10.89;100.00
49216;BME280;45943;53.148;8.204;2024-03-23T07:15:22;100648.44;;;10.94;100.00
49216;BME280;45943;53.148;8.204;2024-03-23T07:17:48;100652.16;;;11.02;100.00
49216;BME280;45943;53.148;8.204;2024-03-23T07:20:15;100646.91;;;11.01;100.00
49216;BME280;45943;53.148;8.204;2024-03-23T07:22:41;100643.72;;;11.07;100.00
49216;BME280;45943;53.148;8.204;2024-03-23T07:25:07;100647.72;;;11.12;100.00
49216;BME280;45943;53.148;8.204;2024-03-23T07:27:33;100639.97;;;11.19;100.00
49216;BME280;45943;53.148;8.204;2024-03-23T07:29:59;100638.72;;;11.23;100.00
49216;BME280;45943;53.148;8.204;2024-03-23T07:32:26;100644.81;;;11.25;100.00
49216;BME280;45943;53.148;8.204;2024-03-23T07:34:52;100641.63;;;11.31;100.00
49216;BME280;45943;53.148;8.204;2024-03-23T07:37:18;100633.00;;;11.37;100.00
49216;BME280;45943;53.148;8.204;2024-03-23T07:39:44;100629.19;;;11.40;100.00
49216;BME280;45943;53.148;8.204;2024-03-23T07:42:11;100625.00;;;11.47;100.00
49216;BME280;45943;53.148;8.204;2024-03-23T07:44:37;100628.81;;;11.44;100.00
49216;BME280;45943;53.148;8.204;2024-03-23T07:47:03;100625.44;;;11.52;100.00
49216;BME280;45943;53.148;8.204;2024-03-23T07:49:29;100623.63;;;11.53;100.00
49216;BME280;45943;53.148;8.204;2024-03-23T07:51:55;100637.38;;;11.69;100.00
49216;BME280;45943;53.148;8.204;2024-03-23T07:54:21;100632.41;;;11.64;100.00
49216;BME280;45943;53.148;8.204;2024-03-23T07:56:47;100637.19;;;11.51;100.00
49216;BME280;45943;53.148;8.204;2024-03-23T07:59:13;100636.50;;;11.59;100.00
49216;BME280;45943;53.148;8.204;2024-03-23T08:01:39;100633.31;;;11.74;100.00
49216;BME280;45943;53.148;8.204;2024-03-23T08:04:05;100633.03;;;11.77;100.00
49216;BME280;45943;53.148;8.204;2024-03-23T08:06:31;100633.97;;;11.67;100.00
49216;BME280;45943;53.148;8.204;2024-03-23T08:08:58;100626.78;;;11.67;100.00
49216;BME280;45943;53.148;8.204;2024-03-23T08:11:27;100619.69;;;11.66;100.00
49216;BME280;45943;53.148;8.204;2024-03-23T08:13:55;100619.59;;;11.77;100.00
49216;BME280;45943;53.148;8.204;2024-03-23T08:16:22;100624.59;;;11.82;100.00
49216;BME280;45943;53.148;8.204;2024-03-23T08:18:48;100624.47;;;11.84;100.00
49216;BME280;45943;53.148;8.204;2024-03-23T08:21:17;100621.63;;;11.85;100.00
49216;BME280;45943;53.148;8.204;2024-03-23T08:23:44;100623.94;;;11.90;100.00
49216;BME280;45943;53.148;8.204;2024-03-23T08:26:10;100618.66;;;11.88;100.00
49216;BME280;45943;53.148;8.204;2024-03-23T08:28:37;100621.97;;;12.01;100.00
49216;BME280;45943;53.148;8.204;2024-03-23T08:31:04;100621.72;;;12.24;100.00
49216;BME280;45943;53.148;8.204;2024-03-23T08:33:32;100622.38;;;11.97;100.00
49216;BME280;45943;53.148;8.204;2024-03-23T08:35:59;100622.56;;;11.74;99.27
49216;BME280;45943;53.148;8.204;2024-03-23T08:38:29;100624.69;;;11.71;100.00
49216;BME280;45943;53.148;8.204;2024-03-23T08:40:56;100619.50;;;11.89;100.00
49216;BME280;45943;53.148;8.204;2024-03-23T08:43:30;100617.38;;;11.83;95.21
49216;BME280;45943;53.148;8.204;2024-03-23T08:46:07;100628.06;;;11.73;99.48
49216;BME280;45943;53.148;8.204;2024-03-23T08:48:40;100618.53;;;11.80;100.00
49216;BME280;45943;53.148;8.204;2024-03-23T08:51:09;100614.13;;;11.89;100.00
49216;BME280;45943;53.148;8.204;2024-03-23T08:53:36;100612.22;;;12.00;100.00
49216;BME280;45943;53.148;8.204;2024-03-23T08:56:03;100618.03;;;12.15;100.00
49216;BME280;45943;53.148;8.204;2024-03-23T08:58:30;100611.41;;;12.19;92.75
49216;BME280;45943;53.148;8.204;2024-03-23T09:00:57;100606.00;;;12.19;93.65
49216;BME280;45943;53.148;8.204;2024-03-23T09:03:29;100603.06;;;12.42;96.26
49216;BME280;45943;53.148;8.204;2024-03-23T09:05:55;100609.44;;;12.50;96.06
49216;BME280;45943;53.148;8.204;2024-03-23T09:08:21;100604.03;;;12.41;90.91
49216;BME280;45943;53.148;8.204;2024-03-23T09:10:47;100615.78;;;12.30;87.30
49216;BME280;45943;53.148;8.204;2024-03-23T09:13:13;100611.81;;;12.24;89.71
49216;BME280;45943;53.148;8.204;2024-03-23T09:15:49;100605.56;;;12.14;89.94
49216;BME280;45943;53.148;8.204;2024-03-23T09:18:16;100605.84;;;12.11;89.31
49216;BME280;45943;53.148;8.204;2024-03-23T09:20:43;100610.66;;;12.17;94.15
49216;BME280;45943;53.148;8.204;2024-03-23T09:23:09;100610.50;;;12.19;93.06
49216;BME280;45943;53.148;8.204;2024-03-23T09:25:38;100607.94;;;12.07;94.21
49216;BME280;45943;53.148;8.204;2024-03-23T09:28:05;100607.69;;;12.11;92.42
49216;BME280;45943;53.148;8.204;2024-03-23T09:30:34;100600.50;;;12.30;90.43
49216;BME280;45943;53.148;8.204;2024-03-23T09:33:02;100602.22;;;12.51;89.33
49216;BME280;45943;53.148;8.204;2024-03-23T09:35:28;100596.53;;;12.63;87.68
49216;BME280;45943;53.148;8.204;2024-03-23T09:37:54;100594.50;;;12.85;87.85
49216;BME280;45943;53.148;8.204;2024-03-23T09:40:20;100598.66;;;12.79;80.08
49216;BME280;45943;53.148;8.204;2024-03-23T09:42:52;100600.22;;;12.72;84.81
49216;BME280;45943;53.148;8.204;2024-03-23T09:45:24;100604.88;;;12.89;85.17
49216;BME280;45943;53.148;8.204;2024-03-23T09:47:52;100609.41;;;12.79;82.78
49216;BME280;45943;53.148;8.204;2024-03-23T09:50:20;100602.34;;;12.59;80.68
49216;BME280;45943;53.148;8.204;2024-03-23T09:52:46;100613.97;;;12.69;79.65
49216;BME280;45943;53.148;8.204;2024-03-23T09:55:12;100599.50;;;12.80;76.18
49216;BME280;45943;53.148;8.204;2024-03-23T09:57:42;100602.00;;;13.01;78.10
49216;BME280;45943;53.148;8.204;2024-03-23T10:00:08;100586.34;;;13.33;75.81
49216;BME280;45943;53.148;8.204;2024-03-23T10:02:35;100579.44;;;13.21;72.71
49216;BME280;45943;53.148;8.204;2024-03-23T10:05:01;100593.25;;;12.79;70.86
49216;BME280;45943;53.148;8.204;2024-03-23T10:07:27;100584.75;;;12.74;70.77
49216;BME280;45943;53.148;8.204;2024-03-23T10:09:56;100592.09;;;12.91;73.70
49216;BME280;45943;53.148;8.204;2024-03-23T10:12:23;100583.03;;;12.92;73.21
49216;BME280;45943;53.148;8.204;2024-03-23T10:14:50;100590.84;;;12.67;74.74
49216;BME280;45943;53.148;8.204;2024-03-23T10:17:17;100591.50;;;12.98;72.95
49216;BME280;45943;53.148;8.204;2024-03-23T10:19:45;100574.72;;;13.33;72.18
49216;BME280;45943;53.148;8.204;2024-03-23T10:22:13;100572.28;;;13.39;68.47
49216;BME280;45943;53.148;8.204;2024-03-23T10:24:41;100580.50;;;13.47;67.91
49216;BME280;45943;53.148;8.204;2024-03-23T10:27:08;100585.75;;;13.39;66.55
49216;BME280;45943;53.148;8.204;2024-03-23T10:29:34;100563.13;;;13.60;68.07
49216;BME280;45943;53.148;8.204;2024-03-23T10:32:09;100576.66;;;13.77;67.57
49216;BME280;45943;53.148;8.204;2024-03-23T10:34:37;100568.94;;;13.83;68.56
49216;BME280;45943;53.148;8.204;2024-03-23T10:37:03;100563.31;;;13.94;69.97
49216;BME280;45943;53.148;8.204;2024-03-23T10:39:31;100571.13;;;13.97;69.45
49216;BME280;45943;53.148;8.204;2024-03-23T10:42:00;100556.28;;;14.28;66.45
49216;BME280;45943;53.148;8.204;2024-03-23T10:44:28;100589.44;;;14.39;65.16
49216;BME280;45943;53.148;8.204;2024-03-23T10:46:59;100557.88;;;14.39;65.72
49216;BME280;45943;53.148;8.204;2024-03-23T10:49:28;100561.63;;;14.56;64.42
49216;BME280;45943;53.148;8.204;2024-03-23T10:51:58;100563.72;;;14.88;64.10
49216;BME280;45943;53.148;8.204;2024-03-23T10:54:25;100550.34;;;15.12;62.00
49216;BME280;45943;53.148;8.204;2024-03-23T10:57:03;100547.59;;;15.04;61.50
49216;BME280;45943;53.148;8.204;2024-03-23T10:59:30;100547.91;;;15.01;59.27
49216;BME280;45943;53.148;8.204;2024-03-23T11:02:00;100542.19;;;15.04;59.97
49216;BME280;45943;53.148;8.204;2024-03-23T11:04:38;100553.13;;;14.95;57.82
49216;BME280;45943;53.148;8.204;2024-03-23T11:09:58;100545.53;;;14.98;56.37
49216;BME280;45943;53.148;8.204;2024-03-23T11:12:29;100549.53;;;14.86;56.41
49216;BME280;45943;53.148;8.204;2024-03-23T11:17:37;100551.31;;;14.24;57.61
49216;BME280;45943;53.148;8.204;2024-03-23T11:20:03;100544.59;;;13.92;57.55
49216;BME280;45943;53.148;8.204;2024-03-23T11:22:43;100551.38;;;13.78;57.85
49216;BME280;45943;53.148;8.204;2024-03-23T11:27:38;100551.44;;;13.41;58.77
49216;BME280;45943;53.148;8.204;2024-03-23T11:30:11;100550.03;;;13.37;59.57
49216;BME280;45943;53.148;8.204;2024-03-23T11:32:44;100575.75;;;13.22;60.95
49216;BME280;45943;53.148;8.204;2024-03-23T11:38:13;100566.66;;;13.60;62.26
49216;BME280;45943;53.148;8.204;2024-03-23T11:40:41;100571.25;;;13.95;59.61
49216;BME280;45943;53.148;8.204;2024-03-23T11:43:08;100608.84;;;13.79;60.56
49216;BME280;45943;53.148;8.204;2024-03-23T11:45:38;100638.84;;;13.10;65.65
49216;BME280;45943;53.148;8.204;2024-03-23T11:48:06;100640.56;;;12.43;74.71
49216;BME280;45943;53.148;8.204;2024-03-23T11:50:35;100640.66;;;12.03;85.98
49216;BME280;45943;53.148;8.204;2024-03-23T11:53:22;100644.13;;;11.54;89.17
49216;BME280;45943;53.148;8.204;2024-03-23T11:55:52;100655.84;;;11.01;87.78
49216;BME280;45943;53.148;8.204;2024-03-23T11:58:23;100654.09;;;10.79;96.43
49216;BME280;45943;53.148;8.204;2024-03-23T12:03:22;100628.38;;;10.56;100.00
49216;BME280;45943;53.148;8.204;2024-03-23T12:05:51;100604.09;;;10.78;100.00
49216;BME280;45943;53.148;8.204;2024-03-23T12:08:22;100600.97;;;11.15;100.00
49216;BME280;45943;53.148;8.204;2024-03-23T12:10:49;100599.31;;;12.04;100.00
49216;BME280;45943;53.148;8.204;2024-03-23T12:13:16;100587.41;;;12.93;98.24
49216;BME280;45943;53.148;8.204;2024-03-23T12:15:46;100574.28;;;13.37;85.37
49216;BME280;45943;53.148;8.204;2024-03-23T12:18:13;100575.44;;;13.62;83.97
49216;BME280;45943;53.148;8.204;2024-03-23T12:20:39;100564.97;;;14.04;88.35
49216;BME280;45943;53.148;8.204;2024-03-23T12:23:09;100551.16;;;14.43;80.58
49216;BME280;45943;53.148;8.204;2024-03-23T12:25:37;100551.56;;;14.66;74.52
49216;BME280;45943;53.148;8.204;2024-03-23T12:28:05;100546.00;;;14.68;72.38
49216;BME280;45943;53.148;8.204;2024-03-23T12:30:35;100556.88;;;15.02;75.38
49216;BME280;45943;53.148;8.204;2024-03-23T12:33:03;100548.75;;;15.28;72.95
49216;BME280;45943;53.148;8.204;2024-03-23T12:35:29;100554.50;;;15.33;68.93
49216;BME280;45943;53.148;8.204;2024-03-23T12:37:55;100555.09;;;15.44;69.69
49216;BME280;45943;53.148;8.204;2024-03-23T12:40:21;100557.72;;;15.62;68.04
49216;BME280;45943;53.148;8.204;2024-03-23T12:42:47;100560.31;;;15.80;65.02
49216;BME280;45943;53.148;8.204;2024-03-23T12:45:13;100558.00;;;15.93;65.10
49216;BME280;45943;53.148;8.204;2024-03-23T12:47:39;100549.38;;;15.98;63.60
49216;BME280;45943;53.148;8.204;2024-03-23T12:50:05;100542.91;;;15.74;63.59
49216;BME280;45943;53.148;8.204;2024-03-23T12:52:32;100563.19;;;15.10;64.57
49216;BME280;45943;53.148;8.204;2024-03-23T12:54:59;100576.03;;;14.47;70.77
49216;BME280;45943;53.148;8.204;2024-03-23T12:57:25;100576.81;;;13.94;80.93
49216;BME280;45943;53.148;8.204;2024-03-23T12:59:54;100565.63;;;13.34;80.44
49216;BME280;45943;53.148;8.204;2024-03-23T13:02:20;100561.84;;;13.17;88.14
49216;BME280;45943;53.148;8.204;2024-03-23T13:04:48;100569.34;;;13.60;92.79
49216;BME280;45943;53.148;8.204;2024-03-23T13:07:15;100557.03;;;14.21;93.84
49216;BME280;45943;53.148;8.204;2024-03-23T13:09:42;100540.50;;;14.77;88.03
49216;BME280;45943;53.148;8.204;2024-03-23T13:12:08;100548.59;;;15.29;82.32
49216;BME280;45943;53.148;8.204;2024-03-23T13:14:34;100550.63;;;15.61;75.41
49216;BME280;45943;53.148;8.204;2024-03-23T13:17:00;100549.22;;;15.99;74.50
49216;BME280;45943;53.148;8.204;2024-03-23T13:19:28;100548.28;;;16.33;69.84
49216;BME280;45943;53.148;8.204;2024-03-23T13:21:56;100533.56;;;16.44;63.25
49216;BME280;45943;53.148;8.204;2024-03-23T13:24:23;100536.44;;;16.34;61.27
49216;BME280;45943;53.148;8.204;2024-03-23T13:26:55;100536.59;;;16.32;59.73
49216;BME280;45943;53.148;8.204;2024-03-23T13:29:22;100531.19;;;16.24;58.11
49216;BME280;45943;53.148;8.204;2024-03-23T13:31:49;100529.81;;;16.28;59.99
49216;BME280;45943;53.148;8.204;2024-03-23T13:34:16;100519.97;;;16.11;58.24
49216;BME280;45943;53.148;8.204;2024-03-23T13:36:46;100517.25;;;15.87;60.02
49216;BME280;45943;53.148;8.204;2024-03-23T13:39:13;100527.00;;;15.71;60.07
49216;BME280;45943;53.148;8.204;2024-03-23T13:44:08;100521.81;;;15.10;59.75
49216;BME280;45943;53.148;8.204;2024-03-23T13:46:41;100522.66;;;14.84;57.96
49216;BME280;45943;53.148;8.204;2024-03-23T13:49:18;100528.66;;;14.70;57.79
49216;BME280;45943;53.148;8.204;2024-03-23T13:51:50;100535.41;;;14.48;57.67